Time;durP1;ratioP1;P1;durP2;ratioP2;P2;SDS_P1;SDS_P2;PMS_P1;PMS_P2;Temp;Humidity;BMP_temperature;BMP_pressure;BME280_temperature;BME280_humidity;BME280_pressure;Samples;Min_cycle;Max_cycle;Signal;HPM_P1;HPM_P2
2022/02/25 00:02:25;;;;;;;28.60;8.80;;;;;;;5.85;48.11;98708.08;231360;1229;138981;-62
2022/02/25 00:07:29;;;;;;;23.20;10.90;;;;;;;5.79;48.26;98713.06;231285;1228;138885;-60
2022/02/25 00:12:32;;;;;;;32.60;13.00;;;;;;;5.72;48.35;98710.08;231282;1229;139320;-60
2022/02/25 00:17:35;;;;;;;37.00;14.10;;;;;;;5.64;48.71;98700.78;231266;1229;139318;-62
2022/02/25 00:22:39;;;;;;;35.10;14.40;;;;;;;5.60;48.83;98692.33;231286;1229;138969;-62
2022/02/25 00:27:44;;;;;;;35.80;15.30;;;;;;;5.59;49.00;98686.44;231274;1228;139320;-61
2022/02/25 00:32:47;;;;;;;42.40;15.70;;;;;;;5.58;49.26;98680.84;231285;1229;140023;-60
2022/02/25 00:37:50;;;;;;;36.80;15.10;;;;;;;5.58;49.29;98671.66;231379;1228;139349;-59
2022/02/25 00:42:53;;;;;;;30.90;13.90;;;;;;;5.58;49.08;98666.76;231299;1228;138764;-63
2022/02/25 00:47:56;;;;;;;29.90;14.70;;;;;;;5.61;49.47;98669.59;231242;1228;139096;-64
2022/02/25 00:52:58;;;;;;;30.60;15.20;;;;;;;5.59;49.51;98673.92;231311;1228;140179;-65
2022/02/25 00:58:01;;;;;;;31.60;13.40;;;;;;;5.52;49.75;98672.34;231306;1229;138908;-63
2022/02/25 01:03:05;;;;;;;30.60;13.80;;;;;;;5.46;49.88;98667.84;231443;1229;138904;-59
2022/02/25 01:08:08;;;;;;;29.70;12.90;;;;;;;5.39;50.01;98660.59;231393;1229;139042;-63
2022/02/25 01:13:11;;;;;;;32.10;12.70;;;;;;;5.35;50.21;98654.66;231258;1229;141891;-61
2022/02/25 01:18:14;;;;;;;25.00;11.80;;;;;;;5.34;50.28;98650.14;231242;1229;139230;-63
2022/02/25 01:23:17;;;;;;;25.40;11.20;;;;;;;5.30;50.11;98644.31;231288;1229;138862;-63
2022/02/25 01:28:21;;;;;;;20.30;9.20;;;;;;;5.27;50.16;98640.29;231306;1229;138630;-61
2022/02/25 01:33:24;;;;;;;15.60;7.50;;;;;;;5.24;50.26;98638.12;231299;1229;139319;-64
2022/02/25 01:38:30;;;;;;;18.60;7.90;;;;;;;5.25;50.48;98631.05;231416;1228;141855;-62
2022/02/25 01:43:32;;;;;;;19.40;7.60;;;;;;;5.24;50.47;98626.31;231204;1229;139689;-63
2022/02/25 01:48:36;;;;;;;17.80;7.10;;;;;;;5.22;50.40;98621.48;231263;1229;139096;-63
2022/02/25 01:53:38;;;;;;;18.30;6.10;;;;;;;5.25;50.53;98613.98;231177;1228;138894;-64
2022/02/25 01:58:41;;;;;;;17.40;5.80;;;;;;;5.31;50.56;98611.06;231270;1229;140037;-64
2022/02/25 02:03:44;;;;;;;11.90;5.00;;;;;;;5.36;50.54;98613.60;231302;1229;139090;-62
2022/02/25 02:08:48;;;;;;;16.70;5.90;;;;;;;5.42;50.80;98607.17;231254;1228;139010;-63
2022/02/25 02:13:50;;;;;;;14.50;5.60;;;;;;;5.47;51.09;98605.36;231373;1229;139055;-64
2022/02/25 02:18:55;;;;;;;19.50;5.80;;;;;;;5.51;51.17;98604.99;231258;1228;139553;-63
2022/02/25 02:23:59;;;;;;;14.70;5.50;;;;;;;5.52;51.12;98600.18;231312;1228;139102;-64
2022/02/25 02:29:04;;;;;;;17.30;5.50;;;;;;;5.53;51.12;98598.90;231298;1228;138880;-63
2022/02/25 02:34:09;;;;;;;21.80;4.80;;;;;;;5.54;50.94;98596.91;231296;1229;138582;-64
2022/02/25 02:39:12;;;;;;;;;;;;;;;5.57;50.90;98599.77;231290;1229;138699;-63
2022/02/25 02:44:15;;;;;;;14.80;4.70;;;;;;;5.58;50.96;98594.95;231472;1229;125796;-63
2022/02/25 02:49:18;;;;;;;9.80;4.10;;;;;;;5.60;50.96;98596.43;231280;1229;138512;-62
2022/02/25 02:54:21;;;;;;;11.10;3.80;;;;;;;5.61;50.72;98597.13;231303;1229;138635;-61
2022/02/25 02:59:24;;;;;;;8.70;3.90;;;;;;;5.64;50.72;98603.84;231282;1228;138831;-61
2022/02/25 03:04:28;;;;;;;9.60;3.50;;;;;;;5.62;50.91;98604.61;231281;1229;138467;-65
2022/02/25 03:09:30;;;;;;;16.60;4.10;;;;;;;5.59;51.08;98609.54;231265;1229;138929;-63
2022/02/25 03:14:36;;;;;;;15.20;3.90;;;;;;;5.55;51.11;98609.71;231388;1227;138883;-64
2022/02/25 03:19:39;;;;;;;7.90;3.40;;;;;;;5.54;51.21;98610.48;231264;1230;140221;-63
2022/02/25 03:24:42;;;;;;;13.10;3.70;;;;;;;5.49;51.29;98613.52;231325;1228;140430;-63
2022/02/25 03:29:45;;;;;;;15.20;5.40;;;;;;;5.51;51.53;98613.09;231185;1229;138584;-64
2022/02/25 03:34:51;;;;;;;13.00;5.80;;;;;;;5.62;51.31;98615.90;231301;1229;139148;-63
2022/02/25 03:39:54;;;;;;;14.80;5.70;;;;;;;5.87;51.23;98617.85;231296;1229;139978;-60
2022/02/25 03:44:57;;;;;;;10.90;5.00;;;;;;;6.17;50.89;98622.33;231234;1229;138981;-60
2022/02/25 03:50:02;;;;;;;8.70;4.50;;;;;;;6.50;50.87;98620.30;231586;1228;138746;-56
2022/02/25 03:55:07;;;;;;;13.00;5.20;;;;;;;6.80;50.29;98616.56;231114;1230;138884;-63
2022/02/25 04:00:11;;;;;;;10.40;4.20;;;;;;;7.05;50.25;98614.50;231248;1230;139224;-63
2022/02/25 04:05:14;;;;;;;12.30;4.50;;;;;;;7.25;49.63;98621.38;231202;1229;139901;-61
2022/02/25 04:10:17;;;;;;;10.70;4.70;;;;;;;7.38;49.11;98617.31;231171;1229;139315;-60
2022/02/25 04:15:20;;;;;;;7.00;3.40;;;;;;;7.49;49.16;98624.44;231315;1229;138629;-60
2022/02/25 04:20:23;;;;;;;8.00;3.60;;;;;;;7.64;49.03;98630.84;231350;1229;139002;-58
2022/02/25 04:25:26;;;;;;;10.40;4.30;;;;;;;7.78;48.71;98639.77;231307;1229;139495;-60
2022/02/25 04:30:29;;;;;;;11.40;4.50;;;;;;;7.90;48.40;98637.84;230983;1229;140011;-60
2022/02/25 04:35:33;;;;;;;13.90;5.30;;;;;;;7.97;47.81;98630.37;231296;1229;139184;-60
2022/02/25 04:40:37;;;;;;;11.40;5.50;;;;;;;7.98;47.93;98636.99;231278;1229;139293;-57
2022/02/25 04:45:41;;;;;;;13.40;5.70;;;;;;;7.98;47.68;98644.41;231307;1229;140139;-60
2022/02/25 04:50:44;;;;;;;14.60;5.80;;;;;;;7.98;47.76;98651.80;231242;1229;139306;-60
2022/02/25 04:55:47;;;;;;;13.00;6.10;;;;;;;7.97;47.55;98654.71;231425;1229;139103;-60
2022/02/25 05:00:50;;;;;;;16.00;6.40;;;;;;;7.95;47.62;98668.82;231228;1229;138883;-60
2022/02/25 05:05:54;;;;;;;11.40;6.00;;;;;;;7.96;47.44;98676.90;231276;1229;139490;-60
2022/02/25 05:10:57;;;;;;;12.30;5.80;;;;;;;7.90;46.98;98682.36;231231;1230;139088;-59
2022/02/25 05:21:24;;;;;;;13.00;5.30;;;;;;;7.72;47.39;98696.38;231367;1229;139325;-59
2022/02/25 05:26:29;;;;;;;10.00;4.80;;;;;;;7.69;47.26;98709.96;231403;1229;138980;-59
2022/02/25 05:31:33;;;;;;;;;;;;;;;7.68;47.60;98720.82;231279;1230;139203;-60
2022/02/25 05:36:36;;;;;;;10.10;4.40;;;;;;;7.68;47.44;98738.83;231350;1229;125146;-58
2022/02/25 05:41:41;;;;;;;9.60;4.50;;;;;;;7.70;47.57;98750.02;231269;1229;138612;-62
2022/02/25 05:46:44;;;;;;;16.00;4.80;;;;;;;7.73;47.45;98765.21;231302;1229;138584;-59
2022/02/25 05:51:47;;;;;;;16.60;5.20;;;;;;;7.74;47.49;98777.14;231219;1230;138995;-62
2022/02/25 05:56:50;;;;;;;12.00;4.60;;;;;;;7.72;47.19;98793.18;231247;1230;139169;-58
2022/02/25 06:01:53;;;;;;;155.90;90.60;;;;;;;7.77;48.03;98803.49;231262;1230;138531;-62
2022/02/25 06:06:57;;;;;;;20.00;7.20;;;;;;;8.00;48.29;98799.95;231319;1230;139066;-62
2022/02/25 06:12:00;;;;;;;12.00;6.10;;;;;;;8.01;47.74;98806.80;231188;1229;138825;-63
2022/02/25 06:17:03;;;;;;;16.00;6.60;;;;;;;7.97;47.86;98811.76;231235;1230;138778;-62
2022/02/25 06:22:06;;;;;;;15.60;6.40;;;;;;;7.92;47.85;98810.28;231171;1230;138359;-58
2022/02/25 06:27:10;;;;;;;15.60;6.70;;;;;;;7.86;47.89;98821.91;231268;1230;138965;-62
2022/02/25 06:32:13;;;;;;;21.70;9.00;;;;;;;7.87;48.42;98837.59;231212;1229;140623;-62
2022/02/25 06:37:18;;;;;;;14.50;6.90;;;;;;;7.92;48.49;98844.74;231238;1228;139779;-63
2022/02/25 06:42:21;;;;;;;49.40;29.80;;;;;;;7.91;48.41;98858.02;231209;1228;138766;-63
2022/02/25 06:47:24;;;;;;;17.70;7.70;;;;;;;7.96;48.63;98873.66;231258;1229;139443;-64
2022/02/25 06:52:27;;;;;;;16.00;7.20;;;;;;;7.97;48.68;98879.45;230963;1229;138622;-62
2022/02/25 06:57:30;;;;;;;14.20;6.80;;;;;;;7.93;48.51;98904.70;231289;1229;138436;-62
2022/02/25 07:02:33;;;;;;;18.50;6.40;;;;;;;7.88;48.65;98923.91;231384;1229;138919;-61
2022/02/25 07:07:36;;;;;;;12.90;5.90;;;;;;;7.81;48.97;98937.65;231283;1230;139519;-63
2022/02/25 07:12:39;;;;;;;11.40;6.10;;;;;;;7.72;49.18;98967.66;231272;1230;139360;-64
2022/02/25 07:17:42;;;;;;;10.10;5.60;;;;;;;7.60;49.90;98994.75;231282;1230;139414;-64
2022/02/25 07:22:46;;;;;;;13.80;7.60;;;;;;;7.52;50.77;99019.84;231244;1228;139390;-64
2022/02/25 07:27:49;;;;;;;2.10;1.10;;;;;;;7.34;51.16;99049.51;231297;1228;140225;-64
2022/02/25 07:32:55;;;;;;;1.00;0.90;;;;;;;6.81;51.31;99074.95;231246;1229;138743;-63
2022/02/25 07:38:00;;;;;;;2.10;1.10;;;;;;;6.35;52.26;99083.88;231406;1229;138683;-62
2022/02/25 07:43:03;;;;;;;1.10;0.90;;;;;;;5.93;52.71;99084.64;231276;1229;139312;-63
2022/02/25 07:48:06;;;;;;;3.10;1.20;;;;;;;5.74;53.65;99089.66;231384;1229;138930;-60
2022/02/25 07:53:10;;;;;;;1.20;0.90;;;;;;;5.70;54.14;99097.39;231258;1228;138591;-62
2022/02/25 07:58:18;;;;;;;49.30;27.40;;;;;;;5.75;54.75;99106.69;231273;1230;138720;-62
2022/02/25 08:03:22;;;;;;;9.10;4.00;;;;;;;5.89;55.15;99117.36;231256;1229;138800;-64
2022/02/25 08:08:25;;;;;;;5.20;1.90;;;;;;;5.91;55.29;99118.73;231233;1230;139702;-63
2022/02/25 08:13:28;;;;;;;3.50;1.40;;;;;;;5.86;55.34;99129.11;231289;1228;139574;-64
2022/02/25 08:18:31;;;;;;;5.30;1.70;;;;;;;5.83;55.72;99137.69;231256;1230;138534;-63
2022/02/25 08:23:34;;;;;;;3.60;1.60;;;;;;;5.85;55.86;99143.77;231232;1229;138809;-64
2022/02/25 08:28:37;;;;;;;2.60;1.70;;;;;;;5.85;55.99;99150.30;231227;1229;138470;-61
2022/02/25 08:33:41;;;;;;;2.70;1.90;;;;;;;5.77;56.09;99155.04;231186;1229;139636;-62
2022/02/25 08:38:44;;;;;;;53.20;33.70;;;;;;;5.72;56.74;99159.46;231322;1229;138818;-61
2022/02/25 08:43:47;;;;;;;205.60;117.20;;;;;;;6.29;57.97;99166.44;231343;1228;139022;-60
2022/02/25 08:48:50;;;;;;;6.00;3.30;;;;;;;6.47;57.08;99169.90;231146;1229;139998;-62
2022/02/25 08:53:53;;;;;;;4.50;3.10;;;;;;;6.38;56.64;99175.42;231146;1227;139435;-59
2022/02/25 08:58:56;;;;;;;4.70;3.40;;;;;;;6.19;56.70;99177.44;231139;1230;139256;-62
2022/02/25 09:04:01;;;;;;;5.30;3.90;;;;;;;6.11;57.07;99178.48;231154;1228;138723;-61
2022/02/25 09:09:04;;;;;;;6.70;4.60;;;;;;;6.00;57.06;99195.86;231191;1229;138913;-60
2022/02/25 09:14:07;;;;;;;7.00;4.50;;;;;;;5.91;57.72;99207.62;231241;1229;138892;-62
2022/02/25 09:19:10;;;;;;;15.40;10.00;;;;;;;5.84;57.81;99218.28;231166;1229;140676;-62
2022/02/25 09:24:13;;;;;;;10.00;5.60;;;;;;;5.84;58.20;99222.86;231214;1230;139920;-61
2022/02/25 09:29:16;;;;;;;7.60;5.20;;;;;;;5.76;58.26;99227.59;231205;1229;140300;-62
2022/02/25 09:34:19;;;;;;;6.50;4.30;;;;;;;5.70;58.36;99228.52;231049;1228;138737;-59
2022/02/25 09:39:25;;;;;;;6.20;3.70;;;;;;;5.65;58.30;99233.13;231150;1229;138788;-62
2022/02/25 09:44:28;;;;;;;5.60;3.90;;;;;;;5.68;58.38;99234.23;231257;1229;138865;-62
2022/02/25 09:49:31;;;;;;;5.90;3.60;;;;;;;5.68;58.37;99243.57;231146;1229;138789;-62
2022/02/25 09:54:34;;;;;;;5.30;3.60;;;;;;;5.69;58.22;99251.08;231160;1229;138633;-62
2022/02/25 09:59:37;;;;;;;7.30;3.80;;;;;;;5.76;58.16;99260.35;231162;1229;139200;-62
2022/02/25 10:04:40;;;;;;;8.00;3.60;;;;;;;5.85;58.05;99258.59;231127;1229;138322;-62
2022/02/25 10:09:44;;;;;;;4.90;3.20;;;;;;;5.90;58.13;99258.17;231158;1229;139265;-59
2022/02/25 10:14:49;;;;;;;6.10;3.30;;;;;;;6.00;57.98;99264.02;231180;1229;139253;-60
2022/02/25 10:19:57;;;;;;;23.40;14.00;;;;;;;6.05;57.97;99263.97;231268;1228;138833;-61
2022/02/25 10:25:07;;;;;;;11.80;6.20;;;;;;;6.22;58.21;99257.99;231319;1228;138774;-61
2022/02/25 10:30:17;;;;;;;6.80;5.70;;;;;;;6.31;57.66;99265.90;231207;1228;138770;-59
2022/02/25 10:35:25;;;;;;;9.20;5.60;;;;;;;6.38;57.72;99264.04;231277;1228;138771;-59
2022/02/25 10:40:31;;;;;;;8.30;5.30;;;;;;;6.42;57.49;99261.27;231363;1228;139516;-59
2022/02/25 10:45:40;;;;;;;10.00;5.40;;;;;;;6.51;57.44;99265.30;231323;1228;140843;-58
2022/02/25 10:50:46;;;;;;;5.10;4.00;;;;;;;6.55;57.41;99262.81;231261;1228;138962;-60
2022/02/25 10:55:49;;;;;;;6.00;3.80;;;;;;;6.60;57.06;99257.98;231432;1229;138835;-60
2022/02/25 11:01:12;;;;;;;5.60;2.90;;;;;;;6.61;56.73;99267.67;231270;1229;138824;-59
2022/02/25 11:06:16;;;;;;;4.60;3.00;;;;;;;6.56;56.19;99271.58;231256;1228;139003;-59
2022/02/25 11:11:23;;;;;;;5.90;3.70;;;;;;;6.53;56.18;99277.00;231154;1228;139258;-61
2022/02/25 11:16:27;;;;;;;7.80;5.20;;;;;;;6.55;56.13;99282.17;231325;1228;138930;-61
2022/02/25 11:21:51;;;;;;;6.30;4.70;;;;;;;6.66;56.48;99277.88;231249;1228;139195;-61
2022/02/25 11:26:54;;;;;;;8.80;5.90;;;;;;;6.66;56.19;99272.21;231171;1228;139193;-58
2022/02/25 11:32:01;;;;;;;8.90;5.80;;;;;;;6.78;56.44;99275.40;231407;1229;139125;-60
2022/02/25 11:37:04;;;;;;;12.50;5.70;;;;;;;6.97;56.74;99273.20;231318;1228;138959;-61
2022/02/25 11:42:08;;;;;;;9.10;6.00;;;;;;;7.09;56.36;99268.60;231255;1229;138918;-60
2022/02/25 11:47:34;;;;;;;10.60;6.10;;;;;;;7.15;56.10;99261.45;231282;1229;139176;-60
2022/02/25 11:52:37;;;;;;;12.30;5.10;;;;;;;7.34;56.29;99255.98;231254;1228;138924;-60
2022/02/25 11:57:40;;;;;;;13.00;5.40;;;;;;;7.57;55.93;99248.93;231250;1229;140214;-60
2022/02/25 12:03:07;;;;;;;10.30;4.90;;;;;;;7.80;55.47;99249.28;231359;1229;139038;-60
2022/02/25 12:08:22;;;;;;;9.30;4.30;;;;;;;7.88;54.28;99254.02;231338;1228;138339;-61
2022/02/25 12:13:27;;;;;;;8.70;4.20;;;;;;;8.07;54.23;99250.50;231231;1228;139163;-60
2022/02/25 12:18:37;;;;;;;12.90;4.30;;;;;;;8.29;53.85;99255.74;231249;1228;138851;-61
2022/02/25 12:23:51;;;;;;;10.10;4.80;;;;;;;8.43;53.29;99262.84;231283;1228;138855;-60
2022/02/25 12:28:55;;;;;;;13.40;4.90;;;;;;;8.27;52.63;99262.41;231345;1228;139489;-60
2022/02/25 12:34:05;;;;;;;9.50;4.60;;;;;;;8.10;52.69;99269.56;231225;1229;138912;-60
2022/02/25 12:39:10;;;;;;;15.20;4.90;;;;;;;7.91;52.48;99275.98;231199;1230;139260;-59
2022/02/25 12:44:21;;;;;;;;;;;;;;;7.62;52.33;99281.91;231411;1228;139127;-60
2022/02/25 12:49:27;;;;;;;6.90;3.20;;;;;;;7.44;52.60;99282.75;231320;1229;125837;-61
2022/02/25 12:54:32;;;;;;;19.20;4.20;;;;;;;7.44;52.64;99282.55;231251;1229;138387;-60
2022/02/25 13:00:00;;;;;;;9.40;4.00;;;;;;;7.53;52.43;99287.60;231272;1229;138694;-60
2022/02/25 13:05:06;;;;;;;11.10;4.40;;;;;;;7.77;52.28;99279.80;231082;1228;139105;-61
2022/02/25 13:10:09;;;;;;;8.50;4.50;;;;;;;7.94;52.45;99280.23;231224;1229;138902;-61
2022/02/25 13:15:12;;;;;;;9.30;4.70;;;;;;;8.01;51.61;99282.73;231208;1229;140310;-60
2022/02/25 13:20:15;;;;;;;11.00;4.90;;;;;;;7.98;52.03;99281.98;231461;1228;139726;-60
2022/02/25 13:25:24;;;;;;;10.20;5.00;;;;;;;7.96;51.73;99279.77;231250;1228;138493;-61
2022/02/25 13:30:37;;;;;;;8.70;4.20;;;;;;;7.92;51.53;99273.46;231202;1229;138477;-59
2022/02/25 13:35:43;;;;;;;10.00;4.60;;;;;;;8.18;51.48;99271.69;231194;1228;138679;-60
2022/02/25 13:40:53;;;;;;;9.80;4.70;;;;;;;8.53;51.63;99272.63;231157;1228;139010;-60
2022/02/25 13:46:18;;;;;;;9.40;4.80;;;;;;;8.85;51.39;99270.83;231203;1228;138599;-59
2022/02/25 13:56:58;;;;;;;7.00;3.40;;;;;;;9.10;50.56;99261.23;231225;1228;138820;-61
2022/02/25 14:02:13;;;;;;;3.90;1.60;;;;;;;8.99;49.22;99268.52;231332;1228;139127;-62
2022/02/25 14:07:17;;;;;;;7.70;2.00;;;;;;;8.87;47.85;99265.25;231133;1229;139540;-61
2022/02/25 14:12:20;;;;;;;7.40;1.60;;;;;;;8.78;47.28;99262.20;231152;1229;138449;-61
2022/02/25 14:17:27;;;;;;;6.10;1.80;;;;;;;8.73;46.80;99261.36;231216;1228;139445;-60
2022/02/25 14:22:34;;;;;;;200.50;121.50;;;;;;;8.67;46.41;99263.95;231040;1229;139035;-62
2022/02/25 14:27:37;;;;;;;8.80;4.10;;;;;;;8.69;46.66;99266.00;231557;1228;139378;-61
2022/02/25 14:32:51;;;;;;;11.10;3.00;;;;;;;8.69;45.65;99266.01;231831;1228;139374;-62
2022/02/25 14:37:55;;;;;;;4.00;1.70;;;;;;;8.54;45.02;99265.48;231735;1228;138657;-60
2022/02/25 14:42:58;;;;;;;4.60;1.50;;;;;;;8.36;44.67;99264.63;231771;1228;138766;-60
2022/02/25 14:48:02;;;;;;;6.70;2.90;;;;;;;8.24;44.31;99272.07;231742;1228;138647;-61
2022/02/25 14:53:06;;;;;;;3.70;1.20;;;;;;;8.22;43.92;99279.09;231699;1228;138745;-63
2022/02/25 14:58:09;;;;;;;6.20;1.80;;;;;;;8.19;44.32;99276.58;231779;1228;138681;-62
2022/02/25 15:03:15;;;;;;;6.60;1.90;;;;;;;8.19;43.96;99276.76;231769;1228;138483;-60
2022/02/25 15:08:18;;;;;;;5.30;2.00;;;;;;;8.16;44.00;99277.42;231925;1228;138962;-61
2022/02/25 15:13:21;;;;;;;5.30;2.00;;;;;;;8.14;43.72;99286.34;231696;1228;139572;-61
2022/02/25 15:18:24;;;;;;;4.30;1.80;;;;;;;8.11;43.55;99290.94;231826;1228;139534;-61
2022/02/25 15:23:28;;;;;;;7.70;2.60;;;;;;;8.05;43.40;99298.62;231404;1228;138823;-60
2022/02/25 15:28:30;;;;;;;5.40;2.20;;;;;;;8.03;43.48;99306.34;231761;1228;138616;-60
2022/02/25 15:33:34;;;;;;;6.10;2.40;;;;;;;7.94;43.23;99316.46;231596;1228;139024;-61
2022/02/25 15:38:37;;;;;;;5.50;2.30;;;;;;;7.91;43.54;99321.90;231831;1228;138450;-60
2022/02/25 15:43:40;;;;;;;8.80;2.90;;;;;;;7.91;43.67;99324.52;231750;1228;139640;-61
2022/02/25 15:48:43;;;;;;;11.70;3.80;;;;;;;7.91;43.62;99334.80;231618;1228;138493;-61
2022/02/25 15:53:46;;;;;;;6.50;2.50;;;;;;;7.88;43.36;99343.79;231546;1228;138689;-60
2022/02/25 15:58:49;;;;;;;8.70;2.10;;;;;;;7.77;43.38;99352.71;231693;1228;138444;-59
2022/02/25 16:03:55;;;;;;;4.70;1.80;;;;;;;7.66;43.30;99362.27;231747;1228;138602;-61
2022/02/25 16:08:58;;;;;;;7.10;1.90;;;;;;;7.54;43.16;99362.62;231850;1228;138582;-61
2022/02/25 16:14:01;;;;;;;6.40;2.10;;;;;;;7.45;43.16;99365.46;231746;1228;139171;-62
2022/02/25 16:19:09;;;;;;;6.20;2.30;;;;;;;7.40;43.06;99371.90;231735;1228;138782;-60
2022/02/25 16:24:12;;;;;;;144.10;75.70;;;;;;;7.38;43.09;99385.58;231793;1228;138955;-59
2022/02/25 16:29:16;;;;;;;36.20;18.30;;;;;;;8.03;47.56;99392.82;231785;1228;140425;-60
2022/02/25 16:34:19;;;;;;;25.30;12.00;;;;;;;10.45;49.67;99390.12;231783;1228;139360;-61
2022/02/25 16:39:22;;;;;;;8.20;3.30;;;;;;;12.06;46.47;99389.21;231731;1228;139503;-60
2022/02/25 16:44:25;;;;;;;11.80;3.40;;;;;;;11.34;42.13;99391.80;231852;1228;139981;-61
2022/02/25 16:49:30;;;;;;;7.30;3.00;;;;;;;10.35;41.30;99406.54;231791;1228;138946;-61
2022/02/25 16:54:33;;;;;;;15.50;4.00;;;;;;;9.54;41.14;99413.31;231791;1228;138613;-62
2022/02/25 16:59:38;;;;;;;11.00;4.10;;;;;;;8.90;41.41;99416.38;231754;1228;139262;-60
2022/02/25 17:04:42;;;;;;;13.40;4.70;;;;;;;8.40;41.57;99420.72;231662;1228;138892;-59
2022/02/25 17:09:45;;;;;;;13.30;5.40;;;;;;;8.01;41.70;99432.04;231785;1228;138567;-59
2022/02/25 17:14:48;;;;;;;11.60;4.60;;;;;;;7.73;42.35;99440.70;231794;1228;139248;-61
2022/02/25 17:19:51;;;;;;;14.00;5.20;;;;;;;7.51;42.47;99446.95;231686;1228;138429;-61
2022/02/25 17:24:58;;;;;;;18.60;6.00;;;;;;;7.34;42.78;99450.85;231695;1228;138547;-60
2022/02/25 17:30:03;;;;;;;13.10;4.60;;;;;;;7.20;43.20;99455.16;231750;1228;138571;-62
2022/02/25 17:35:07;;;;;;;14.30;6.10;;;;;;;7.04;43.22;99461.65;231735;1228;138514;-61
2022/02/25 17:40:11;;;;;;;14.70;7.00;;;;;;;6.88;43.86;99471.98;231785;1228;138382;-61
2022/02/25 17:45:16;;;;;;;15.00;7.70;;;;;;;6.74;44.47;99484.16;231763;1228;139114;-60
2022/02/25 17:50:19;;;;;;;18.30;8.50;;;;;;;6.63;45.13;99487.93;231607;1228;138546;-62
2022/02/25 17:55:22;;;;;;;68.50;34.50;;;;;;;6.53;45.45;99493.27;231770;1228;138995;-63
2022/02/25 18:00:27;;;;;;;43.70;21.20;;;;;;;7.09;49.22;99494.86;231634;1228;141302;-60
2022/02/25 18:05:30;;;;;;;22.40;10.10;;;;;;;10.31;52.69;99492.96;231763;1228;139237;-61
2022/02/25 18:10:33;;;;;;;18.40;9.30;;;;;;;11.67;47.20;99487.89;231694;1228;139951;-63
2022/02/25 18:15:37;;;;;;;22.60;9.30;;;;;;;10.68;43.61;99503.35;231739;1228;139079;-62
2022/02/25 18:20:41;;;;;;;21.20;10.10;;;;;;;9.48;43.54;99511.88;231870;1228;138990;-62
2022/02/25 18:25:44;;;;;;;25.50;10.60;;;;;;;8.56;44.07;99523.58;231786;1228;139049;-59
2022/02/25 18:30:47;;;;;;;20.40;9.90;;;;;;;7.83;44.86;99525.74;231734;1228;138974;-61
2022/02/25 18:35:50;;;;;;;25.40;11.10;;;;;;;7.27;45.45;99533.58;231645;1228;139335;-62
2022/02/25 18:40:53;;;;;;;24.40;11.40;;;;;;;6.88;46.11;99537.21;231646;1228;139555;-63
2022/02/25 18:45:58;;;;;;;25.50;11.10;;;;;;;6.61;47.03;99540.39;231764;1228;138704;-61
2022/02/25 18:51:02;;;;;;;23.70;12.00;;;;;;;6.40;47.58;99544.88;231900;1228;139867;-62
2022/02/25 18:56:05;;;;;;;25.20;12.50;;;;;;;6.20;48.29;99548.44;231527;1228;139457;-59
2022/02/25 19:01:08;;;;;;;27.20;12.30;;;;;;;6.07;48.84;99552.94;231768;1228;139332;-61
2022/02/25 19:06:13;;;;;;;31.60;13.70;;;;;;;5.95;49.38;99552.83;231747;1228;140249;-61
2022/02/25 19:11:16;;;;;;;31.20;15.50;;;;;;;5.82;50.04;99549.03;231810;1228;138567;-62
2022/02/25 19:16:19;;;;;;;34.90;16.50;;;;;;;5.74;50.62;99559.86;231633;1228;138762;-62
2022/02/25 19:21:23;;;;;;;36.80;15.90;;;;;;;5.67;51.01;99568.36;231716;1228;139858;-61
2022/02/25 19:26:26;;;;;;;29.60;16.40;;;;;;;5.59;51.41;99569.34;231895;1228;138813;-62
2022/02/25 19:31:30;;;;;;;31.30;17.40;;;;;;;5.53;51.86;99579.91;231523;1230;139202;-61
2022/02/25 19:36:33;;;;;;;248.30;183.60;;;;;;;5.47;52.37;99591.02;231816;1228;138999;-61
2022/02/25 19:41:36;;;;;;;45.50;24.50;;;;;;;5.58;52.92;99603.34;231757;1228;139900;-62
2022/02/25 19:46:39;;;;;;;33.50;19.30;;;;;;;5.51;52.70;99615.17;231755;1228;139108;-61
2022/02/25 19:51:42;;;;;;;34.20;18.70;;;;;;;5.38;52.82;99619.45;231805;1230;138857;-61
2022/02/25 19:56:48;;;;;;;34.70;19.00;;;;;;;5.26;52.95;99629.34;231889;1229;139304;-61
2022/02/25 20:01:56;;;;;;;31.70;18.30;;;;;;;5.15;53.32;99631.45;231697;1230;139396;-61
2022/02/25 20:07:07;;;;;;;37.30;19.10;;;;;;;5.05;53.60;99638.96;231688;1230;139451;-61
2022/02/25 20:12:10;;;;;;;37.50;19.40;;;;;;;4.85;53.77;99643.23;231784;1229;139242;-62
2022/02/25 20:17:13;;;;;;;37.50;19.10;;;;;;;4.78;54.17;99644.51;231739;1228;138902;-62
2022/02/25 20:22:16;;;;;;;190.70;108.20;;;;;;;4.72;54.38;99650.64;231530;1229;138894;-62
2022/02/25 20:27:20;;;;;;;49.70;29.30;;;;;;;4.75;55.21;99654.95;231794;1228;139324;-61
2022/02/25 20:32:23;;;;;;;40.60;22.20;;;;;;;4.93;55.14;99657.93;231270;1230;139630;-59
2022/02/25 20:37:26;;;;;;;34.70;20.50;;;;;;;4.83;54.69;99665.95;231248;1229;139789;-62
2022/02/25 20:42:30;;;;;;;39.10;20.80;;;;;;;4.73;54.89;99665.73;231231;1230;139236;-59
2022/02/25 20:47:33;;;;;;;38.40;20.80;;;;;;;4.59;55.04;99670.69;231286;1228;139432;-62
2022/02/25 20:52:37;;;;;;;38.60;20.00;;;;;;;4.40;55.13;99680.16;231220;1229;139659;-61
2022/02/25 20:58:02;;;;;;;39.10;20.10;;;;;;;4.20;55.61;99683.50;231189;1230;139962;-61
2022/02/25 21:03:06;;;;;;;41.00;20.60;;;;;;;4.09;55.84;99687.64;231174;1229;139589;-61
2022/02/25 21:08:09;;;;;;;39.30;21.20;;;;;;;4.07;56.23;99693.30;231359;1229;139061;-62
2022/02/25 21:13:13;;;;;;;40.90;21.70;;;;;;;4.09;56.37;99701.16;231202;1228;138985;-61
2022/02/25 21:18:17;;;;;;;42.70;22.80;;;;;;;4.10;56.43;99703.76;231246;1230;138704;-61
2022/02/25 21:23:20;;;;;;;39.90;23.00;;;;;;;4.07;56.59;99702.29;231233;1229;139408;-61
2022/02/25 21:28:25;;;;;;;42.90;22.70;;;;;;;4.06;56.63;99704.92;231271;1228;139214;-63
2022/02/25 21:33:29;;;;;;;37.50;21.90;;;;;;;4.04;56.70;99706.91;231106;1228;138885;-60
2022/02/25 21:38:33;;;;;;;41.10;21.00;;;;;;;3.97;56.80;99705.14;231375;1229;138808;-60
2022/02/25 21:43:35;;;;;;;39.40;19.70;;;;;;;3.96;56.89;99705.49;231246;1229;139069;-59
2022/02/25 21:48:38;;;;;;;41.90;21.40;;;;;;;3.97;57.06;99708.30;231251;1229;139892;-60
2022/02/25 21:53:42;;;;;;;38.70;19.90;;;;;;;3.98;56.94;99714.59;231257;1230;139147;-57
2022/02/25 21:58:45;;;;;;;36.70;20.20;;;;;;;3.98;57.06;99711.98;231247;1229;139410;-60
2022/02/25 22:03:52;;;;;;;38.10;21.10;;;;;;;3.94;56.90;99712.76;231230;1229;138992;-58
2022/02/25 22:08:55;;;;;;;40.20;22.00;;;;;;;3.90;56.95;99711.27;231386;1229;139169;-60
2022/02/25 22:13:58;;;;;;;42.30;22.60;;;;;;;3.86;57.03;99711.90;231222;1230;139209;-60
2022/02/25 22:19:07;;;;;;;45.10;24.20;;;;;;;3.83;57.10;99709.17;231225;1228;139052;-58
2022/02/25 22:24:10;;;;;;;45.20;24.30;;;;;;;3.77;57.25;99703.85;231248;1229;138767;-62
2022/02/25 22:29:13;;;;;;;43.20;25.00;;;;;;;3.70;57.21;99704.73;231223;1228;141346;-61
2022/02/25 22:34:16;;;;;;;50.90;26.20;;;;;;;3.64;57.31;99706.64;231217;1230;139006;-60
2022/02/25 22:39:19;;;;;;;49.50;25.80;;;;;;;3.56;57.57;99703.30;231239;1230;139438;-60
2022/02/25 22:44:22;;;;;;;51.10;26.50;;;;;;;3.48;57.69;99703.11;231342;1228;139185;-60
2022/02/25 22:49:27;;;;;;;52.30;28.00;;;;;;;3.43;57.78;99705.17;231253;1229;138595;-59
2022/02/25 22:59:51;;;;;;;49.00;27.80;;;;;;;3.36;57.96;99712.16;231262;1230;138852;-60
2022/02/25 23:10:16;;;;;;;51.90;27.40;;;;;;;3.27;58.02;99722.54;231233;1229;139860;-62
2022/02/25 23:15:19;;;;;;;47.80;27.20;;;;;;;3.23;58.27;99723.14;231210;1229;139933;-60
2022/02/25 23:20:22;;;;;;;49.00;25.60;;;;;;;3.19;58.32;99727.07;231267;1230;140819;-62
2022/02/25 23:25:26;;;;;;;52.70;27.50;;;;;;;3.21;58.46;99732.49;231203;1230;140990;-60
2022/02/25 23:30:29;;;;;;;50.60;26.80;;;;;;;3.23;58.78;99737.16;231277;1229;139826;-60
2022/02/25 23:35:33;;;;;;;47.90;26.50;;;;;;;3.29;58.60;99740.89;231177;1229;139656;-62
2022/02/25 23:40:37;;;;;;;46.50;26.00;;;;;;;3.39;58.76;99741.05;231247;1229;139775;-58